createdAt,value
2022-09-07T00:01:52.878Z,4.45
2022-09-07T00:03:58.455Z,4.38
2022-09-07T00:06:09.128Z,4.20
2022-09-07T00:08:14.197Z,4.20
2022-09-07T00:12:24.233Z,4.20
2022-09-07T00:16:36.581Z,4.22
2022-09-07T00:18:45.817Z,4.20
2022-09-07T00:21:00.820Z,3.88
2022-09-07T00:23:05.867Z,4.40
2022-09-07T00:25:11.905Z,3.90
2022-09-07T00:27:16.937Z,4.15
2022-09-07T00:29:21.874Z,4.78
2022-09-07T00:31:27.073Z,4.10
2022-09-07T00:33:34.746Z,3.88
2022-09-07T00:35:43.402Z,4.40
2022-09-07T00:37:49.418Z,4.10
2022-09-07T00:39:54.971Z,4.13
2022-09-07T00:41:59.958Z,4.47
2022-09-07T00:44:34.682Z,4.32
2022-09-07T00:46:39.723Z,4.72
2022-09-07T00:48:53.804Z,4.18
2022-09-07T00:51:04.480Z,4.57
2022-09-07T00:53:13.790Z,4.05
2022-09-07T00:55:20.071Z,3.78
2022-09-07T00:57:28.265Z,4.22
2022-09-07T00:59:37.771Z,3.95
2022-09-07T01:01:43.125Z,3.88
2022-09-07T01:03:54.121Z,3.88
2022-09-07T01:06:02.328Z,4.72
2022-09-07T01:08:07.950Z,4.40
2022-09-07T01:10:13.241Z,4.18
2022-09-07T01:12:18.230Z,4.47
2022-09-07T01:14:25.747Z,4.43
2022-09-07T01:16:44.030Z,3.67
2022-09-07T01:18:59.804Z,3.42
2022-09-07T01:21:25.386Z,3.95
2022-09-07T01:24:07.067Z,4.40
2022-09-07T01:26:40.813Z,3.58
2022-09-07T01:28:54.924Z,3.70
2022-09-07T01:31:01.990Z,4.32
2022-09-07T01:33:18.864Z,4.35
2022-09-07T01:35:29.334Z,3.70
2022-09-07T01:37:43.967Z,4.93
2022-09-07T01:39:54.622Z,4.68
2022-09-07T01:42:04.242Z,4.00
2022-09-07T01:44:15.533Z,3.60
2022-09-07T01:46:27.756Z,4.30
2022-09-07T01:48:36.655Z,4.80
2022-09-07T01:50:45.615Z,4.90
2022-09-07T01:52:56.820Z,4.93
2022-09-07T01:55:06.429Z,4.88
2022-09-07T01:57:18.311Z,5.70
2022-09-07T01:59:32.239Z,5.32
2022-09-07T02:01:43.228Z,4.40
2022-09-07T02:03:51.653Z,4.25
2022-09-07T02:06:02.136Z,4.13
2022-09-07T02:08:13.022Z,4.68
2022-09-07T02:10:21.492Z,4.05
2022-09-07T02:12:35.073Z,4.20
2022-09-07T02:14:51.936Z,4.20
2022-09-07T02:17:03.420Z,4.45
2022-09-07T02:19:13.377Z,4.28
2022-09-07T02:21:22.302Z,3.95
2022-09-07T02:23:31.118Z,4.80
2022-09-07T02:25:40.661Z,4.45
2022-09-07T02:27:50.254Z,4.22
2022-09-07T02:29:58.082Z,4.45
2022-09-07T02:32:03.133Z,4.65
2022-09-07T02:36:16.143Z,4.75
2022-09-07T02:38:22.023Z,5.13
2022-09-07T02:40:26.947Z,4.90
2022-09-07T02:42:35.087Z,4.45
2022-09-07T02:44:45.669Z,4.38
2022-09-07T02:47:08.388Z,4.40
2022-09-07T02:49:28.057Z,4.93
2022-09-07T02:51:39.897Z,4.28
2022-09-07T02:54:08.717Z,4.80
2022-09-07T02:56:26.095Z,4.75
2022-09-07T02:58:37.736Z,4.60
2022-09-07T03:00:47.802Z,4.68
2022-09-07T03:03:02.962Z,3.95
2022-09-07T03:05:14.842Z,4.55
2022-09-07T03:07:23.625Z,5.20
2022-09-07T03:09:33.896Z,4.85
2022-09-07T03:11:39.914Z,4.88
2022-09-07T03:13:45.062Z,4.40
2022-09-07T03:18:03.239Z,4.13
2022-09-07T03:20:08.927Z,4.80
2022-09-07T03:22:16.717Z,5.00
2022-09-07T03:24:21.780Z,4.30
2022-09-07T03:28:32.462Z,4.78
2022-09-07T03:30:37.839Z,5.10
2022-09-07T03:32:43.014Z,4.63
2022-09-07T03:36:55.478Z,4.40
2022-09-07T03:39:01.252Z,4.18
2022-09-07T03:41:09.060Z,5.28
2022-09-07T03:43:14.074Z,4.47
2022-09-07T03:45:19.538Z,5.30
2022-09-07T03:47:24.503Z,4.82
2022-09-07T03:49:29.444Z,5.55
2022-09-07T03:51:37.021Z,6.38
2022-09-07T03:53:44.052Z,6.68
2022-09-07T03:55:59.038Z,5.95
2022-09-07T03:58:03.946Z,6.45
2022-09-07T04:00:10.013Z,6.72
2022-09-07T04:02:18.183Z,7.10
2022-09-07T04:04:23.294Z,7.32
2022-09-07T04:06:28.603Z,7.00
2022-09-07T04:08:38.550Z,8.55
2022-09-07T04:10:43.659Z,8.70
2022-09-07T04:14:54.628Z,7.45
2022-09-07T04:16:59.693Z,7.72
2022-09-07T04:19:04.925Z,7.80
2022-09-07T04:21:10.345Z,6.30
2022-09-07T04:23:15.612Z,6.18
2022-09-07T04:25:23.458Z,8.32
2022-09-07T04:27:28.470Z,6.82
2022-09-07T04:29:33.669Z,6.90
2022-09-07T04:31:39.337Z,6.07
2022-09-07T04:33:45.108Z,6.35
2022-09-07T04:35:50.052Z,4.82
2022-09-07T04:37:55.021Z,6.57
2022-09-07T04:40:00.000Z,4.60
2022-09-07T04:42:07.835Z,4.55
2022-09-07T04:44:16.736Z,4.65
2022-09-07T04:46:24.173Z,4.45
2022-09-07T04:48:29.370Z,4.50
2022-09-07T04:50:34.844Z,5.32
2022-09-07T04:52:40.034Z,4.65
2022-09-07T04:54:45.180Z,5.13
2022-09-07T04:56:50.163Z,25.90
2022-09-07T05:01:04.787Z,5.97
2022-09-07T05:03:09.874Z,4.70
2022-09-07T05:05:14.754Z,6.10
2022-09-07T05:07:19.734Z,4.68
2022-09-07T05:09:24.756Z,4.95
2022-09-07T05:11:30.878Z,4.75
2022-09-07T05:13:35.820Z,4.68
2022-09-07T05:15:43.396Z,4.57
2022-09-07T05:17:50.258Z,4.05
2022-09-07T05:19:55.262Z,5.20
2022-09-07T05:24:06.961Z,4.32
2022-09-07T05:26:12.787Z,4.32
2022-09-07T05:28:19.596Z,4.80
2022-09-07T05:32:52.871Z,5.10
2022-09-07T05:34:58.234Z,5.60
2022-09-07T05:37:04.101Z,6.13
2022-09-07T05:39:09.881Z,4.88
2022-09-07T05:41:16.381Z,4.90
2022-09-07T05:43:22.014Z,5.22
2022-09-07T05:45:26.994Z,5.78
2022-09-07T05:47:32.482Z,5.82
2022-09-07T05:49:40.240Z,5.57
2022-09-07T05:51:45.167Z,5.25
2022-09-07T05:53:50.774Z,5.93
2022-09-07T05:55:55.703Z,5.95
2022-09-07T05:58:00.788Z,5.88
2022-09-07T06:02:17.604Z,5.63
2022-09-07T06:04:22.707Z,5.93
2022-09-07T06:08:36.274Z,5.60
2022-09-07T06:12:49.395Z,6.10
2022-09-07T06:14:54.806Z,5.60
2022-09-07T06:19:07.815Z,5.95
2022-09-07T06:21:14.122Z,5.63
2022-09-07T06:23:21.835Z,4.97
2022-09-07T06:25:26.826Z,5.47
2022-09-07T06:27:31.821Z,5.72
2022-09-07T06:29:36.849Z,5.30
2022-09-07T06:34:07.328Z,5.10
2022-09-07T06:36:15.734Z,6.25
2022-09-07T06:38:23.205Z,5.22
2022-09-07T06:40:28.208Z,5.15
2022-09-07T06:42:33.114Z,5.25
2022-09-07T06:44:38.114Z,5.38
2022-09-07T06:49:08.246Z,4.53
2022-09-07T06:53:35.613Z,5.40
2022-09-07T06:55:50.273Z,5.90
2022-09-07T06:57:55.706Z,5.05
2022-09-07T07:00:00.636Z,5.43
2022-09-07T07:04:10.472Z,5.15
2022-09-07T07:06:16.280Z,5.40
2022-09-07T07:08:21.316Z,5.18
2022-09-07T07:10:26.345Z,5.47
2022-09-07T07:14:44.888Z,5.35
2022-09-07T07:16:50.225Z,5.90
2022-09-07T07:21:05.714Z,4.75
2022-09-07T07:23:11.255Z,5.20
2022-09-07T07:25:16.615Z,4.50
2022-09-07T07:27:21.658Z,4.40
2022-09-07T07:29:29.139Z,5.53
2022-09-07T07:31:36.349Z,4.60
2022-09-07T07:33:41.659Z,4.40
2022-09-07T07:35:46.644Z,4.13
2022-09-07T07:40:23.488Z,4.70
2022-09-07T07:42:30.359Z,4.55
2022-09-07T07:44:37.923Z,4.97
2022-09-07T07:46:43.188Z,4.43
2022-09-07T07:48:51.239Z,4.85
2022-09-07T07:51:04.362Z,4.07
2022-09-07T07:55:44.187Z,5.13
2022-09-07T07:57:50.166Z,5.25
2022-09-07T07:59:57.682Z,4.53
2022-09-07T08:02:05.001Z,5.18
2022-09-07T08:04:10.477Z,4.97
2022-09-07T08:06:17.422Z,4.45
2022-09-07T08:08:23.070Z,4.38
2022-09-07T08:10:29.700Z,4.35
2022-09-07T08:12:34.548Z,4.05
2022-09-07T08:14:41.087Z,4.10
2022-09-07T08:16:49.337Z,4.00
2022-09-07T08:18:54.199Z,3.80
2022-09-07T08:21:03.085Z,3.65
2022-09-07T08:23:08.231Z,4.05
2022-09-07T08:27:21.446Z,3.42
2022-09-07T08:29:27.234Z,3.60
2022-09-07T08:31:32.119Z,4.00
2022-09-07T08:33:41.343Z,4.38
2022-09-07T08:35:46.362Z,3.65
2022-09-07T08:39:55.708Z,3.10
2022-09-07T08:44:24.992Z,2.83
2022-09-07T08:46:33.858Z,3.13
2022-09-07T08:48:43.075Z,3.03
2022-09-07T08:50:56.350Z,2.40
2022-09-07T08:53:05.849Z,2.55
2022-09-07T08:55:17.428Z,2.78
2022-09-07T08:57:29.709Z,1.92
2022-09-07T08:59:43.551Z,2.53
2022-09-07T09:02:27.008Z,1.90
2022-09-07T09:04:25.512Z,2.42
2022-09-07T09:06:42.431Z,2.45
2022-09-07T09:09:04.629Z,2.45
2022-09-07T09:11:14.840Z,2.35
2022-09-07T09:13:22.569Z,2.15
2022-09-07T09:15:38.757Z,2.15
2022-09-07T09:17:50.082Z,2.13
2022-09-07T09:20:05.744Z,2.45
2022-09-07T09:22:16.307Z,2.72
2022-09-07T09:24:22.343Z,1.90
2022-09-07T09:26:29.149Z,2.00
2022-09-07T09:28:34.176Z,2.22
2022-09-07T09:30:39.078Z,2.05
2022-09-07T09:32:45.387Z,2.63
2022-09-07T09:35:04.048Z,2.17
2022-09-07T09:37:14.083Z,1.60
2022-09-07T09:39:28.869Z,1.80
2022-09-07T09:41:39.620Z,1.95
2022-09-07T09:43:47.980Z,2.15
2022-09-07T09:48:23.222Z,1.92
2022-09-07T09:53:04.238Z,2.10
2022-09-07T09:55:33.697Z,2.42
2022-09-07T10:00:27.969Z,1.70
2022-09-07T10:05:00.048Z,2.15
2022-09-07T10:07:20.964Z,2.13
2022-09-07T10:09:29.017Z,2.20
2022-09-07T10:14:21.966Z,2.10
2022-09-07T10:16:41.321Z,1.95
2022-09-07T10:18:58.668Z,2.20
2022-09-07T10:21:31.291Z,2.17
2022-09-07T10:23:38.858Z,2.13
2022-09-07T10:25:47.562Z,2.92
2022-09-07T10:28:04.397Z,2.47
2022-09-07T10:30:16.458Z,1.98
2022-09-07T10:32:35.006Z,1.73
2022-09-07T10:34:51.507Z,2.65
2022-09-07T10:37:04.482Z,1.52
2022-09-07T10:39:17.786Z,2.30
2022-09-07T10:41:31.098Z,1.73
2022-09-07T10:43:45.625Z,1.52
2022-09-07T10:48:54.425Z,1.77
2022-09-07T10:51:09.830Z,2.17
2022-09-07T10:53:40.668Z,2.25
2022-09-07T10:56:00.823Z,3.08
2022-09-07T10:59:01.343Z,2.60
2022-09-07T11:01:02.262Z,2.13
2022-09-07T11:03:27.372Z,1.73
2022-09-07T11:05:40.508Z,2.50
2022-09-07T11:08:02.176Z,1.85
2022-09-07T11:10:18.242Z,2.17
2022-09-07T11:12:30.940Z,2.08
2022-09-07T11:14:42.034Z,2.45
2022-09-07T11:16:54.571Z,3.28
2022-09-07T11:24:03.840Z,2.72
2022-09-07T11:26:15.870Z,2.20
2022-09-07T11:28:27.582Z,1.90
2022-09-07T11:30:35.838Z,1.80
2022-09-07T11:32:45.261Z,2.58
2022-09-07T11:34:55.441Z,2.15
2022-09-07T11:37:05.757Z,2.30
2022-09-07T11:39:19.990Z,1.83
2022-09-07T11:41:31.854Z,2.30
2022-09-07T11:43:45.834Z,2.03
2022-09-07T11:45:55.209Z,1.98
2022-09-07T11:48:06.139Z,1.45
2022-09-07T11:50:18.875Z,1.77
2022-09-07T11:52:34.061Z,1.75
2022-09-07T11:54:48.551Z,2.35
2022-09-07T11:56:57.597Z,2.50
2022-09-07T11:59:26.935Z,2.10
2022-09-07T12:01:46.032Z,1.70
2022-09-07T12:04:23.656Z,2.28
2022-09-07T12:06:50.794Z,2.13
2022-09-07T12:09:07.267Z,2.30
2022-09-07T12:11:44.884Z,1.90
2022-09-07T12:14:03.289Z,2.10
2022-09-07T12:16:18.900Z,1.42
2022-09-07T12:18:41.452Z,1.60
2022-09-07T12:20:47.698Z,1.50
2022-09-07T12:23:04.603Z,1.92
2022-09-07T12:25:12.157Z,2.97
2022-09-07T12:27:42.115Z,1.90
2022-09-07T12:29:46.942Z,1.48
2022-09-07T12:32:07.262Z,1.92
2022-09-07T12:34:42.671Z,1.38
2022-09-07T12:36:53.566Z,1.13
2022-09-07T12:39:25.202Z,1.30
2022-09-07T12:41:49.771Z,1.65
2022-09-07T12:44:11.211Z,2.10
2022-09-07T12:46:23.088Z,1.77
2022-09-07T12:48:43.656Z,1.88
2022-09-07T12:50:59.854Z,2.58
2022-09-07T12:53:27.171Z,2.20
2022-09-07T12:56:18.920Z,1.83
2022-09-07T12:58:37.573Z,2.25
2022-09-07T13:00:57.878Z,1.52
2022-09-07T13:06:06.035Z,1.77
2022-09-07T13:08:41.964Z,1.92
2022-09-07T13:10:47.647Z,1.90
2022-09-07T13:12:54.165Z,2.58
2022-09-07T13:15:02.168Z,1.60
2022-09-07T13:17:38.864Z,1.60
2022-09-07T13:20:23.654Z,1.70
2022-09-07T13:22:59.734Z,1.88
2022-09-07T13:25:06.278Z,2.10
2022-09-07T13:27:47.346Z,2.08
2022-09-07T13:29:56.439Z,1.55
2022-09-07T13:32:12.146Z,1.73
2022-09-07T13:34:32.742Z,2.28
2022-09-07T13:36:43.384Z,2.30
2022-09-07T13:38:55.084Z,2.05
2022-09-07T13:41:06.891Z,1.75
2022-09-07T13:43:19.226Z,1.70
2022-09-07T13:45:33.352Z,1.70
2022-09-07T13:47:55.152Z,2.28
2022-09-07T13:50:11.547Z,1.15
2022-09-07T13:52:21.010Z,1.90
2022-09-07T13:54:39.022Z,1.52
2022-09-07T13:56:53.141Z,1.38
2022-09-07T13:58:58.537Z,1.65
2022-09-07T14:01:07.276Z,2.03
2022-09-07T14:03:19.603Z,1.75
2022-09-07T14:05:24.888Z,1.92
2022-09-07T14:07:31.310Z,1.80
2022-09-07T14:09:38.725Z,1.70
2022-09-07T14:11:45.826Z,2.53
2022-09-07T14:14:19.033Z,1.58
2022-09-07T14:16:24.064Z,1.30
2022-09-07T14:18:33.327Z,1.83
2022-09-07T14:20:43.380Z,1.75
2022-09-07T14:22:53.009Z,2.35
2022-09-07T14:25:03.188Z,1.88
2022-09-07T14:27:09.816Z,1.63
2022-09-07T14:29:24.866Z,2.15
2022-09-07T14:31:30.689Z,1.75
2022-09-07T14:33:35.982Z,1.50
2022-09-07T14:35:42.274Z,1.92
2022-09-07T14:37:50.988Z,1.58
2022-09-07T14:39:56.621Z,1.58
2022-09-07T14:42:05.548Z,1.30
2022-09-07T14:44:30.196Z,1.90
2022-09-07T14:46:36.967Z,1.30
2022-09-07T14:48:42.868Z,1.25
2022-09-07T14:51:05.817Z,1.85
2022-09-07T14:53:36.301Z,1.70
2022-09-07T14:55:47.199Z,1.60
2022-09-07T14:58:11.209Z,1.70
2022-09-07T15:00:30.652Z,1.73
2022-09-07T15:02:38.782Z,1.95
2022-09-07T15:04:43.620Z,2.10
2022-09-07T15:09:09.352Z,1.52
2022-09-07T15:13:46.998Z,1.40
2022-09-07T15:16:01.319Z,2.13
2022-09-07T15:18:09.200Z,1.63
2022-09-07T15:20:36.567Z,1.65
2022-09-07T15:22:41.343Z,1.35
2022-09-07T15:24:46.243Z,1.50
2022-09-07T15:27:08.514Z,1.40
2022-09-07T15:29:20.542Z,1.15
2022-09-07T15:31:43.404Z,1.75
2022-09-07T15:33:51.105Z,1.60
2022-09-07T15:35:58.748Z,1.63
2022-09-07T15:38:05.265Z,1.30
2022-09-07T15:40:20.572Z,1.58
2022-09-07T15:44:53.622Z,1.83
2022-09-07T15:49:24.174Z,1.30
2022-09-07T15:56:20.332Z,1.35
2022-09-07T15:58:25.342Z,1.52
2022-09-07T16:00:32.967Z,1.30
2022-09-07T16:05:04.141Z,1.45
2022-09-07T16:07:09.126Z,1.80
2022-09-07T16:11:24.236Z,1.40
2022-09-07T16:13:31.457Z,1.25
2022-09-07T16:15:45.676Z,1.30
2022-09-07T16:17:53.984Z,1.27
2022-09-07T16:20:02.093Z,1.30
2022-09-07T16:22:07.344Z,1.70
2022-09-07T16:24:12.782Z,1.20
2022-09-07T16:26:19.259Z,1.60
2022-09-07T16:28:24.132Z,1.25
2022-09-07T16:32:51.752Z,1.55
2022-09-07T16:34:56.576Z,1.42
2022-09-07T16:37:01.319Z,1.40
2022-09-07T16:39:06.227Z,1.60
2022-09-07T16:43:20.063Z,1.10
2022-09-07T16:47:52.965Z,1.15
2022-09-07T16:49:58.193Z,1.40
2022-09-07T16:52:03.088Z,1.40
2022-09-07T16:56:16.959Z,1.60
2022-09-07T16:58:37.876Z,1.95
2022-09-07T17:00:42.918Z,2.00
2022-09-07T17:02:47.725Z,1.83
2022-09-07T17:04:55.093Z,1.52
2022-09-07T17:06:59.920Z,1.38
2022-09-07T17:09:04.657Z,1.58
2022-09-07T17:11:11.336Z,1.48
2022-09-07T17:13:16.161Z,1.50
2022-09-07T17:15:20.955Z,1.60
2022-09-07T17:17:26.007Z,1.92
2022-09-07T17:19:31.127Z,1.58
2022-09-07T17:21:41.936Z,2.55
2022-09-07T17:23:54.364Z,1.83
2022-09-07T17:26:07.113Z,1.40
2022-09-07T17:28:12.406Z,1.55
2022-09-07T17:30:20.733Z,1.52
2022-09-07T17:32:27.471Z,1.65
2022-09-07T17:34:32.636Z,1.50
2022-09-07T17:36:40.980Z,1.65
2022-09-07T17:41:12.789Z,1.65
2022-09-07T17:45:42.369Z,1.70
2022-09-07T17:49:54.351Z,1.70
2022-09-07T17:52:02.288Z,1.77
2022-09-07T17:54:11.162Z,1.92
2022-09-07T17:56:18.635Z,1.67
2022-09-07T17:58:23.811Z,2.13
2022-09-07T18:00:28.827Z,2.28
2022-09-07T18:02:33.634Z,2.58
2022-09-07T18:04:38.500Z,2.60
2022-09-07T18:08:53.195Z,2.47
2022-09-07T18:13:35.024Z,2.63
2022-09-07T18:15:42.496Z,2.53
2022-09-07T18:17:49.790Z,2.50
2022-09-07T18:19:54.773Z,2.13
2022-09-07T18:24:08.922Z,3.28
2022-09-07T18:26:13.811Z,3.75
2022-09-07T18:30:43.064Z,2.65
2022-09-07T18:34:52.618Z,2.63
2022-09-07T18:36:58.280Z,3.13
2022-09-07T18:39:06.864Z,3.17
2022-09-07T18:41:14.214Z,2.60
2022-09-07T18:43:18.967Z,2.90
2022-09-07T18:45:27.504Z,3.47
2022-09-07T18:47:32.673Z,2.95
2022-09-07T18:49:37.557Z,2.72
2022-09-07T18:54:09.533Z,2.53
2022-09-07T18:56:17.286Z,3.35
2022-09-07T18:58:22.118Z,3.03
2022-09-07T19:00:26.998Z,4.50
2022-09-07T19:02:31.847Z,3.70
2022-09-07T19:07:01.519Z,3.33
2022-09-07T19:09:09.249Z,3.20
2022-09-07T19:11:16.256Z,3.28
2022-09-07T19:13:21.060Z,2.50
2022-09-07T19:15:25.910Z,2.80
2022-09-07T19:17:30.692Z,3.20
2022-09-07T19:19:35.685Z,3.28
2022-09-07T19:21:46.498Z,3.03
2022-09-07T19:23:56.610Z,3.50
2022-09-07T19:26:05.143Z,2.47
2022-09-07T19:28:10.014Z,2.80
2022-09-07T19:30:15.603Z,2.58
2022-09-07T19:32:20.775Z,2.30
2022-09-07T19:34:25.914Z,2.00
2022-09-07T19:36:32.653Z,2.83
2022-09-07T19:38:37.976Z,4.25
2022-09-07T19:40:42.822Z,3.30
2022-09-07T19:42:50.178Z,3.20
2022-09-07T19:44:55.384Z,2.90
2022-09-07T19:47:00.496Z,3.25
2022-09-07T19:49:12.056Z,3.00
2022-09-07T19:51:18.560Z,3.17
2022-09-07T19:53:23.641Z,2.63
2022-09-07T19:55:28.459Z,2.10
2022-09-07T19:57:33.284Z,2.42
2022-09-07T19:59:40.686Z,2.88
2022-09-07T20:01:48.508Z,2.83
2022-09-07T20:03:59.400Z,3.40
2022-09-07T20:06:08.088Z,3.35
2022-09-07T20:08:12.866Z,3.15
2022-09-07T20:10:18.250Z,2.83
2022-09-07T20:12:23.082Z,2.47
2022-09-07T20:14:27.939Z,3.00
2022-09-07T20:16:38.152Z,3.42
2022-09-07T20:18:44.224Z,4.00
2022-09-07T20:20:53.060Z,3.00
2022-09-07T20:22:57.881Z,3.15
2022-09-07T20:25:02.657Z,3.22
2022-09-07T20:27:07.949Z,2.90
2022-09-07T20:29:29.217Z,2.92
2022-09-07T20:31:37.035Z,2.97
2022-09-07T20:33:42.737Z,2.33
2022-09-07T20:35:47.827Z,2.58
2022-09-07T20:39:57.794Z,3.05
2022-09-07T20:42:02.795Z,3.20
2022-09-07T20:46:12.417Z,2.80
2022-09-07T20:48:20.080Z,3.08
2022-09-07T20:50:26.107Z,3.08
2022-09-07T20:52:30.853Z,2.92
2022-09-07T20:54:37.770Z,3.53
2022-09-07T20:56:42.686Z,2.55
2022-09-07T20:58:49.659Z,3.40
2022-09-07T21:00:54.963Z,2.53
2022-09-07T21:02:59.879Z,2.60
2022-09-07T21:05:08.016Z,2.53
2022-09-07T21:07:12.892Z,2.50
2022-09-07T21:11:24.504Z,2.50
2022-09-07T21:13:29.352Z,2.92
2022-09-07T21:15:34.130Z,3.30
2022-09-07T21:17:38.882Z,2.90
2022-09-07T21:19:43.594Z,3.10
2022-09-07T21:21:52.639Z,3.28
2022-09-07T21:23:59.338Z,2.70
2022-09-07T21:26:05.132Z,3.38
2022-09-07T21:28:09.904Z,3.00
2022-09-07T21:30:16.297Z,2.63
2022-09-07T21:32:21.068Z,2.45
2022-09-07T21:34:27.404Z,3.25
2022-09-07T21:36:34.120Z,3.10
2022-09-07T21:38:42.897Z,2.40
2022-09-07T21:40:47.823Z,2.92
2022-09-07T21:42:54.244Z,2.67
2022-09-07T21:44:58.980Z,2.60
2022-09-07T21:47:03.842Z,3.10
2022-09-07T21:49:08.912Z,3.20
2022-09-07T21:53:18.388Z,3.42
2022-09-07T21:55:25.818Z,3.60
2022-09-07T21:57:30.551Z,2.78
2022-09-07T21:59:35.398Z,2.97
2022-09-07T22:01:40.964Z,2.60
2022-09-07T22:03:46.703Z,2.42
2022-09-07T22:05:53.695Z,2.00
2022-09-07T22:07:58.479Z,1.90
2022-09-07T22:10:03.608Z,2.25
2022-09-07T22:12:11.306Z,1.90
2022-09-07T22:14:16.889Z,2.05
2022-09-07T22:16:22.150Z,2.10
2022-09-07T22:18:27.067Z,2.08
2022-09-07T22:20:31.869Z,1.92
2022-09-07T22:22:37.144Z,2.22
2022-09-07T22:24:41.940Z,2.03
2022-09-07T22:26:47.019Z,2.35
2022-09-07T22:28:55.469Z,1.90
2022-09-07T22:31:10.377Z,1.70
2022-09-07T22:33:15.236Z,2.42
2022-09-07T22:35:21.588Z,2.30
2022-09-07T22:37:26.803Z,2.40
2022-09-07T22:39:31.849Z,2.70
2022-09-07T22:43:43.677Z,2.20
2022-09-07T22:45:52.110Z,1.95
2022-09-07T22:47:57.439Z,2.28
2022-09-07T22:50:02.485Z,2.15
2022-09-07T22:54:12.132Z,1.88
2022-09-07T22:58:23.814Z,2.00
2022-09-07T23:02:35.695Z,2.40
2022-09-07T23:04:40.567Z,2.28
2022-09-07T23:08:50.865Z,2.20
2022-09-07T23:10:55.824Z,2.40
2022-09-07T23:13:00.565Z,1.95
2022-09-07T23:15:05.397Z,2.22
2022-09-07T23:17:10.158Z,2.15
2022-09-07T23:19:19.665Z,2.20
2022-09-07T23:21:24.449Z,2.25
2022-09-07T23:23:29.938Z,2.17
2022-09-07T23:25:37.788Z,1.92
2022-09-07T23:27:42.530Z,2.60
2022-09-07T23:29:47.357Z,2.60
2022-09-07T23:31:52.170Z,2.63
2022-09-07T23:33:57.420Z,2.60
2022-09-07T23:36:07.441Z,2.28
2022-09-07T23:38:12.415Z,3.17
2022-09-07T23:40:17.478Z,2.63
2022-09-07T23:42:22.201Z,2.33
2022-09-07T23:44:26.943Z,2.38
2022-09-07T23:46:31.693Z,2.50
2022-09-07T23:48:36.456Z,2.35
2022-09-07T23:50:41.438Z,2.22
2022-09-07T23:52:48.775Z,2.20
2022-09-07T23:54:53.846Z,2.53
2022-09-07T23:59:03.129Z,2.78
